Time;durP1;ratioP1;P1;durP2;ratioP2;P2;SDS_P1;SDS_P2;PMS_P1;PMS_P2;Temp;Humidity;BMP_temperature;BMP_pressure;BME280_temperature;BME280_humidity;BME280_pressure;Samples;Min_cycle;Max_cycle;Signal;HPM_P1;HPM_P2
2023/08/29 00:01:12;;;;;;;7.82;5.70;;;;;;;23.60;50.31;98602.34;5114921;27;20035;-74
2023/08/29 00:03:37;;;;;;;8.63;5.63;;;;;;;23.79;49.92;98597.00;5114959;28;20061;-74
2023/08/29 00:06:04;;;;;;;10.43;5.68;;;;;;;23.54;48.85;98592.72;5114341;27;20054;-74
2023/08/29 00:08:33;;;;;;;10.85;6.30;;;;;;;23.56;49.22;98601.63;5097064;28;20082;-74
2023/08/29 00:10:59;;;;;;;11.57;6.25;;;;;;;23.62;48.81;98596.97;5115020;27;20032;-73
2023/08/29 00:13:25;;;;;;;13.77;7.40;;;;;;;22.89;50.23;98594.19;5115541;27;20487;-74
2023/08/29 00:15:51;;;;;;;15.95;5.70;;;;;;;23.13;49.66;98598.50;5124336;27;20024;-74
2023/08/29 00:18:19;;;;;;;11.32;6.28;;;;;;;23.30;49.30;98597.78;5114547;28;20058;-74
2023/08/29 00:20:44;;;;;;;10.00;6.10;;;;;;;23.52;49.06;98593.16;5124508;27;20035;-74
2023/08/29 00:23:10;;;;;;;12.15;6.25;;;;;;;23.63;49.10;98595.72;5095935;28;20099;-74
2023/08/29 00:25:35;;;;;;;9.35;5.57;;;;;;;23.67;48.57;98601.34;5114051;27;20028;-74
2023/08/29 00:28:01;;;;;;;8.90;5.80;;;;;;;23.81;48.42;98600.19;5114475;27;20057;-75
2023/08/29 00:30:26;;;;;;;15.05;6.13;;;;;;;23.80;47.84;98598.59;5113767;28;20085;-74
2023/08/29 00:32:52;;;;;;;15.65;6.28;;;;;;;23.85;48.01;98598.03;5096384;28;20062;-74
2023/08/29 00:35:17;;;;;;;7.95;5.70;;;;;;;23.83;48.29;98606.25;5095547;28;20040;-74
2023/08/29 00:37:43;;;;;;;8.57;6.18;;;;;;;23.72;48.02;98597.16;5096458;27;20039;-74
2023/08/29 00:40:10;;;;;;;11.80;5.80;;;;;;;23.75;47.89;98591.38;5114328;28;20536;-74
2023/08/29 00:42:35;;;;;;;10.65;6.47;;;;;;;23.61;48.94;98603.94;5127390;27;20037;-74
2023/08/29 00:45:01;;;;;;;9.07;5.55;;;;;;;23.62;48.73;98605.53;5132025;27;20479;-74
2023/08/29 00:47:27;;;;;;;22.17;7.60;;;;;;;23.00;50.46;98600.44;5113351;27;20028;-74
2023/08/29 00:49:53;;;;;;;37.20;7.50;;;;;;;23.12;50.37;98599.75;5095465;28;20556;-74
2023/08/29 00:52:19;;;;;;;23.65;7.00;;;;;;;23.08;50.89;98601.09;5117821;27;20114;-74
2023/08/29 00:54:44;;;;;;;14.85;6.25;;;;;;;23.39;50.37;98601.59;5113953;28;20034;-74
2023/08/29 00:57:10;;;;;;;9.48;6.10;;;;;;;23.09;51.72;98596.97;5113272;27;20036;-74
2023/08/29 00:59:36;;;;;;;14.25;7.00;;;;;;;23.04;52.26;98598.31;5095543;28;20110;-74
2023/08/29 01:02:02;;;;;;;12.52;6.13;;;;;;;23.00;52.30;98586.19;5121829;27;20110;-73
2023/08/29 01:04:27;;;;;;;8.27;6.03;;;;;;;23.01;52.58;98596.34;5119244;27;20028;-74
2023/08/29 01:06:55;;;;;;;10.40;7.03;;;;;;;23.04;52.60;98592.59;5113241;28;20036;-74
2023/08/29 01:09:20;;;;;;;12.68;6.85;;;;;;;23.04;52.96;98598.31;5112656;28;20480;-74
2023/08/29 01:12:21;;;;;;;10.05;7.05;;;;;;;22.97;52.88;98590.72;5119332;27;20061;-74
2023/08/29 01:14:54;;;;;;;12.57;6.70;;;;;;;23.02;52.87;98580.84;5133538;27;20041;-74
2023/08/29 01:17:34;;;;;;;11.00;6.85;;;;;;;22.98;53.22;98582.97;5114402;27;20125;-74
2023/08/29 01:19:59;;;;;;;;;;;;;;;22.93;53.80;98581.44;5114129;27;20030;-74
2023/08/29 01:22:44;;;;;;;12.55;6.53;;;;;;;22.71;53.41;98575.44;5124293;27;19911;-75
2023/08/29 01:25:19;;;;;;;14.93;6.70;;;;;;;22.66;53.69;98571.03;5113515;27;20027;-74
2023/08/29 01:27:46;;;;;;;10.57;7.07;;;;;;;22.67;53.22;98572.66;5095371;28;20469;-74
2023/08/29 01:30:12;;;;;;;10.10;7.20;;;;;;;22.65;53.39;98571.47;5129674;27;20031;-74
2023/08/29 01:32:39;;;;;;;12.60;6.80;;;;;;;22.66;53.39;98562.50;5121527;27;20024;-74
2023/08/29 01:35:06;;;;;;;8.80;7.03;;;;;;;22.51;53.52;98561.19;5111692;28;20480;-74
2023/08/29 01:37:31;;;;;;;14.60;7.07;;;;;;;22.38;53.82;98553.25;5112943;27;20049;-74
2023/08/29 01:39:57;;;;;;;11.52;7.32;;;;;;;22.55;53.05;98562.72;5112974;27;20024;-73
2023/08/29 01:42:22;;;;;;;10.82;7.78;;;;;;;22.13;54.13;98568.00;5122921;27;20042;-73
2023/08/29 01:44:48;;;;;;;14.60;6.82;;;;;;;21.44;55.73;98560.66;5133537;27;20046;-74
2023/08/29 01:47:13;;;;;;;11.48;6.72;;;;;;;21.79;54.69;98561.31;5131382;27;20030;-73
2023/08/29 01:49:39;;;;;;;12.73;7.35;;;;;;;21.80;54.10;98562.94;5127204;27;20037;-73
2023/08/29 01:52:05;;;;;;;13.80;7.95;;;;;;;22.03;54.19;98549.91;5117243;27;20043;-74
2023/08/29 01:54:30;;;;;;;10.25;6.88;;;;;;;22.04;54.43;98550.69;5132619;27;20483;-74
2023/08/29 01:56:58;;;;;;;12.77;6.60;;;;;;;22.23;53.75;98551.94;5131270;27;20037;-74
2023/08/29 01:59:24;;;;;;;13.73;7.22;;;;;;;22.35;53.47;98556.19;5114354;27;20032;-74
2023/08/29 02:01:50;;;;;;;12.80;7.45;;;;;;;22.19;53.67;98554.06;5109533;28;20055;-74
2023/08/29 02:04:16;;;;;;;17.73;7.40;;;;;;;22.27;53.51;98547.78;5112544;28;20015;-74
2023/08/29 02:06:41;;;;;;;9.15;6.47;;;;;;;22.25;54.07;98555.97;5123694;27;20019;-74
2023/08/29 02:09:06;;;;;;;15.55;6.85;;;;;;;22.44;53.40;98554.38;5122138;27;20046;-74
2023/08/29 02:11:32;;;;;;;14.77;6.85;;;;;;;22.53;53.44;98559.50;5114416;27;20073;-74
2023/08/29 02:13:58;;;;;;;13.13;7.05;;;;;;;22.43;53.38;98547.06;5132922;27;20304;-74
2023/08/29 02:16:24;;;;;;;11.23;6.72;;;;;;;22.46;53.33;98553.13;5130716;27;20080;-74
2023/08/29 02:18:53;;;;;;;17.45;7.88;;;;;;;22.23;54.34;98563.34;5114440;27;20452;-74
2023/08/29 02:21:19;;;;;;;13.63;7.18;;;;;;;22.09;54.82;98561.59;5097381;27;20027;-74
2023/08/29 02:23:45;;;;;;;24.92;7.95;;;;;;;22.10;54.70;98566.03;5132841;27;20088;-74
2023/08/29 02:26:11;;;;;;;13.25;7.10;;;;;;;22.15;54.87;98554.13;5124231;27;20016;-74
2023/08/29 02:28:38;;;;;;;16.45;7.60;;;;;;;22.20;54.62;98553.63;5127547;27;20114;-74
2023/08/29 02:31:13;;;;;;;16.30;7.85;;;;;;;22.33;53.96;98548.09;5102252;27;20027;-74
2023/08/29 02:33:38;;;;;;;15.02;6.78;;;;;;;21.77;55.43;98540.22;5133189;27;20035;-74
2023/08/29 02:36:05;;;;;;;16.40;7.32;;;;;;;21.84;55.17;98543.72;5111655;27;20029;-74
2023/08/29 02:38:31;;;;;;;25.63;7.65;;;;;;;21.87;54.96;98537.16;5120340;27;20024;-74
2023/08/29 02:40:57;;;;;;;13.02;8.23;;;;;;;21.79;55.25;98537.75;5118602;27;20041;-74
2023/08/29 02:43:22;;;;;;;16.17;8.18;;;;;;;21.74;55.81;98544.72;5117946;27;20079;-74
2023/08/29 02:45:50;;;;;;;14.63;7.65;;;;;;;21.32;57.10;98537.28;5114512;27;20019;-74
2023/08/29 02:48:15;;;;;;;10.85;6.32;;;;;;;21.62;55.93;98551.81;5132871;27;20023;-72
2023/08/29 02:50:42;;;;;;;12.38;6.97;;;;;;;21.60;56.19;98554.31;5117166;27;20427;-72
2023/08/29 02:53:07;;;;;;;14.68;6.97;;;;;;;21.55;56.71;98551.94;5130221;27;20033;-76
2023/08/29 02:55:32;;;;;;;12.05;7.22;;;;;;;21.55;56.42;98557.63;5115659;27;20555;-74
2023/08/29 02:57:58;;;;;;;11.63;7.40;;;;;;;21.44;55.99;98552.91;5132137;27;20051;-74
2023/08/29 03:00:24;;;;;;;15.60;8.20;;;;;;;21.43;56.30;98545.63;5094277;28;20028;-74
2023/08/29 03:02:50;;;;;;;19.13;7.60;;;;;;;21.38;55.62;98540.44;5110991;27;20067;-74
2023/08/29 03:05:16;;;;;;;28.83;8.00;;;;;;;21.40;55.58;98549.34;5113105;27;20034;-73
2023/08/29 03:07:42;;;;;;;23.95;8.05;;;;;;;20.86;56.74;98542.44;5130337;27;20031;-73
2023/08/29 03:10:07;;;;;;;11.32;7.25;;;;;;;20.80;56.90;98551.84;5131951;27;20061;-74
2023/08/29 03:12:33;;;;;;;9.68;6.97;;;;;;;20.81;57.28;98544.91;5118825;28;20519;-73
2023/08/29 03:14:58;;;;;;;15.18;7.65;;;;;;;20.52;58.79;98542.47;5115814;28;20050;-73
2023/08/29 03:17:25;;;;;;;24.80;7.95;;;;;;;20.58;59.38;98549.31;5115897;28;20032;-73
2023/08/29 03:19:50;;;;;;;17.60;7.63;;;;;;;20.58;59.49;98555.00;5118413;28;20102;-73
2023/08/29 03:22:16;;;;;;;14.73;8.10;;;;;;;20.12;61.32;98551.47;5102749;28;20483;-72
2023/08/29 03:24:45;;;;;;;16.55;8.20;;;;;;;19.92;62.62;98540.72;5110744;28;20031;-72
2023/08/29 03:27:10;;;;;;;26.35;9.02;;;;;;;20.09;61.92;98540.97;5106827;28;20031;-73
2023/08/29 03:29:36;;;;;;;200.00;17.33;;;;;;;20.06;61.89;98549.09;5130076;28;20088;-74
2023/08/29 03:32:01;;;;;;;24.25;9.30;;;;;;;20.02;61.40;98545.47;5123653;28;20030;-71
2023/08/29 03:34:27;;;;;;;24.45;8.55;;;;;;;20.05;61.23;98546.69;5117783;27;20484;-73
2023/08/29 03:36:53;;;;;;;22.35;8.25;;;;;;;19.95;62.17;98556.09;5124621;27;20027;-73
2023/08/29 03:39:18;;;;;;;15.40;8.40;;;;;;;20.18;61.96;98555.47;5097205;28;20506;-73
2023/08/29 03:41:44;;;;;;;38.20;8.73;;;;;;;19.94;63.64;98555.31;5120495;27;20031;-71
2023/08/29 03:44:09;;;;;;;22.63;8.27;;;;;;;20.09;64.38;98553.13;5134115;27;20392;-71
2023/08/29 03:46:35;;;;;;;18.42;8.23;;;;;;;20.30;63.44;98543.56;5128004;27;20124;-71
2023/08/29 03:49:00;;;;;;;19.30;9.13;;;;;;;20.50;62.48;98540.06;5129503;27;20027;-71
2023/08/29 03:51:26;;;;;;;19.70;8.02;;;;;;;20.60;62.89;98541.16;5117469;27;20039;-71
2023/08/29 03:53:51;;;;;;;19.75;7.63;;;;;;;20.59;62.23;98533.88;5134140;27;20038;-71
2023/08/29 03:56:18;;;;;;;21.70;8.43;;;;;;;20.55;61.99;98536.75;5120184;27;20019;-71
2023/08/29 03:58:45;;;;;;;24.05;8.65;;;;;;;20.68;61.66;98536.19;5135570;27;20043;-72
2023/08/29 04:01:11;;;;;;;56.55;9.60;;;;;;;20.59;61.27;98531.03;5116732;27;20058;-72
2023/08/29 04:03:37;;;;;;;30.27;10.07;;;;;;;20.16;62.35;98540.91;5114447;27;20076;-71
2023/08/29 04:06:03;;;;;;;28.67;9.00;;;;;;;19.99;62.66;98543.50;5117080;27;20027;-71
2023/08/29 04:08:29;;;;;;;29.65;8.88;;;;;;;19.96;62.43;98550.03;5135345;27;20039;-71
2023/08/29 04:10:54;;;;;;;28.40;9.23;;;;;;;19.54;63.45;98544.31;5116865;27;20524;-71
2023/08/29 04:13:20;;;;;;;21.75;9.05;;;;;;;19.40;64.20;98556.56;5117216;27;20057;-71
2023/08/29 04:15:45;;;;;;;24.10;8.93;;;;;;;19.45;64.04;98556.16;5114262;27;20559;-71
2023/08/29 04:18:11;;;;;;;22.13;8.45;;;;;;;19.34;64.65;98559.06;5135336;27;20078;-71
2023/08/29 04:20:37;;;;;;;19.38;8.80;;;;;;;19.24;65.30;98565.59;5111763;27;20027;-71
2023/08/29 04:23:03;;;;;;;28.80;9.10;;;;;;;19.21;65.40;98558.75;5101505;28;20034;-71
2023/08/29 04:25:36;;;;;;;16.52;9.43;;;;;;;19.47;64.80;98550.03;5095374;28;20038;-71
2023/08/29 04:28:03;;;;;;;13.65;7.57;;;;;;;19.53;64.71;98547.56;5132965;27;20031;-71
2023/08/29 04:30:29;;;;;;;20.10;9.10;;;;;;;19.61;64.46;98538.59;5125025;27;20039;-71
2023/08/29 04:32:55;;;;;;;26.73;10.13;;;;;;;19.65;64.40;98541.38;5123690;27;20475;-71
2023/08/29 04:35:21;;;;;;;16.60;8.27;;;;;;;19.78;64.35;98539.63;5121670;27;20035;-71
2023/08/29 04:37:48;;;;;;;22.75;9.00;;;;;;;19.84;64.19;98533.50;5125551;27;20019;-71
2023/08/29 04:40:16;;;;;;;21.35;8.18;;;;;;;19.70;64.49;98546.59;5133637;27;20015;-71
2023/08/29 04:42:42;;;;;;;18.65;9.20;;;;;;;19.67;64.36;98557.97;5121777;27;20023;-71
2023/08/29 04:45:08;;;;;;;16.67;9.07;;;;;;;19.80;63.67;98544.09;5127252;27;20111;-71
2023/08/29 04:47:34;;;;;;;36.35;10.68;;;;;;;20.02;63.04;98539.81;5116724;27;20027;-70
2023/08/29 04:50:00;;;;;;;18.77;11.55;;;;;;;20.42;61.86;98535.72;5130167;27;20098;-70
2023/08/29 04:52:26;;;;;;;10.60;8.88;;;;;;;20.45;61.52;98541.34;5125175;27;20419;-70
2023/08/29 04:54:55;;;;;;;22.92;9.30;;;;;;;20.28;62.42;98545.22;5095772;28;20542;-70
2023/08/29 04:57:21;;;;;;;17.58;7.72;;;;;;;20.50;61.75;98545.72;5095468;28;20547;-70
2023/08/29 04:59:48;;;;;;;16.10;7.43;;;;;;;20.40;62.24;98538.19;5113555;27;20111;-70
2023/08/29 05:02:14;;;;;;;17.63;8.38;;;;;;;20.32;62.66;98543.13;5127266;27;20110;-70
2023/08/29 05:04:42;;;;;;;11.02;7.57;;;;;;;20.21;63.17;98548.94;5121479;27;20041;-70
2023/08/29 05:07:07;;;;;;;23.23;8.00;;;;;;;20.29;63.15;98547.63;5116909;27;20031;-71
2023/08/29 05:09:33;;;;;;;14.45;8.60;;;;;;;20.28;63.23;98548.88;5134056;27;20138;-70
2023/08/29 05:11:58;;;;;;;13.55;8.77;;;;;;;20.34;63.38;98541.47;5128651;27;20087;-70
2023/08/29 05:14:24;;;;;;;11.30;7.32;;;;;;;20.41;62.87;98537.72;5124352;27;20023;-70
2023/08/29 05:16:49;;;;;;;16.35;9.13;;;;;;;20.59;62.62;98540.34;5123253;27;20084;-70
2023/08/29 05:19:15;;;;;;;13.07;7.18;;;;;;;20.75;62.17;98547.44;5134620;27;20015;-70
2023/08/29 05:21:40;;;;;;;13.77;8.68;;;;;;;20.86;61.78;98541.66;5124538;27;20023;-70
2023/08/29 05:24:06;;;;;;;13.30;7.55;;;;;;;20.79;61.73;98545.38;5124334;27;20399;-71
2023/08/29 05:26:31;;;;;;;23.92;8.65;;;;;;;20.81;61.66;98534.41;5126707;27;20539;-71
2023/08/29 05:28:57;;;;;;;12.55;7.47;;;;;;;20.99;61.18;98533.31;5118168;27;20023;-71
2023/08/29 05:31:22;;;;;;;24.23;11.95;;;;;;;21.15;60.79;98527.00;5127769;27;20038;-74
2023/08/29 05:33:47;;;;;;;25.63;9.70;;;;;;;21.35;60.21;98534.81;5112121;27;20023;-74
2023/08/29 05:36:13;;;;;;;15.00;8.35;;;;;;;21.30;60.39;98536.09;5124950;27;20599;-76
2023/08/29 05:38:39;;;;;;;18.38;8.85;;;;;;;21.54;59.68;98536.13;5130051;27;20521;-74
2023/08/29 05:41:04;;;;;;;20.65;9.05;;;;;;;21.57;59.22;98549.47;5112880;27;20022;-75
2023/08/29 05:43:30;;;;;;;21.20;8.98;;;;;;;21.54;59.74;98547.50;5095498;27;20438;-76
2023/08/29 05:45:56;;;;;;;19.92;9.20;;;;;;;21.83;58.79;98549.84;5115413;27;20051;-75
2023/08/29 05:48:21;;;;;;;16.45;7.95;;;;;;;21.80;58.69;98533.66;5097004;27;20023;-75
2023/08/29 05:50:51;;;;;;;13.65;7.88;;;;;;;21.95;58.06;98534.97;5120410;27;20023;-70
2023/08/29 05:53:20;;;;;;;14.70;8.05;;;;;;;22.11;57.21;98533.47;5129188;27;20076;-70
2023/08/29 05:55:49;;;;;;;13.30;7.32;;;;;;;22.22;56.92;98525.53;5129000;27;20027;-70
2023/08/29 05:58:18;;;;;;;21.88;7.78;;;;;;;22.62;56.26;98524.72;5119755;27;20712;-70
2023/08/29 06:00:48;;;;;;;15.95;7.70;;;;;;;22.74;55.24;98540.34;5102608;27;20031;-70
2023/08/29 06:03:16;;;;;;;21.33;7.57;;;;;;;22.89;55.21;98534.31;5132695;27;20023;-70
2023/08/29 06:05:42;;;;;;;19.58;7.57;;;;;;;23.14;54.70;98534.53;5115837;27;20080;-69
2023/08/29 06:08:11;;;;;;;15.07;7.95;;;;;;;23.37;54.22;98529.94;5112475;28;20020;-71
2023/08/29 06:10:36;;;;;;;16.50;7.68;;;;;;;23.61;53.76;98529.75;5094209;28;20137;-72
2023/08/29 06:13:03;;;;;;;10.40;7.50;;;;;;;23.87;53.26;98535.59;5113060;28;20452;-70
2023/08/29 06:15:29;;;;;;;12.43;6.80;;;;;;;23.96;52.85;98526.41;5105828;27;20037;-70
2023/08/29 06:18:02;;;;;;;18.00;7.53;;;;;;;24.06;52.14;98513.88;5123536;27;20403;-73
2023/08/29 06:20:28;;;;;;;21.10;8.48;;;;;;;24.15;52.37;98524.69;5098449;28;20039;-73
2023/08/29 06:22:56;;;;;;;12.65;7.47;;;;;;;24.20;52.36;98515.53;5094204;27;20057;-72
2023/08/29 06:25:25;;;;;;;15.32;7.68;;;;;;;24.33;51.16;98515.59;5101515;27;20038;-72
2023/08/29 06:27:51;;;;;;;15.32;7.88;;;;;;;24.31;51.36;98528.72;5111886;27;20027;-72
2023/08/29 06:30:19;;;;;;;12.75;7.95;;;;;;;24.51;51.56;98517.09;5103760;28;20464;-72
2023/08/29 06:32:44;;;;;;;14.25;8.43;;;;;;;24.75;49.56;98514.75;5122514;27;20413;-72
2023/08/29 06:35:11;;;;;;;18.85;8.10;;;;;;;24.83;50.15;98512.50;5091089;28;20148;-72
2023/08/29 06:37:40;;;;;;;18.75;8.38;;;;;;;24.84;49.14;98510.44;5111727;28;20511;-74
2023/08/29 06:40:06;;;;;;;10.18;7.22;;;;;;;25.00;49.32;98513.19;5117960;27;20047;-73
2023/08/29 06:42:32;;;;;;;17.98;7.38;;;;;;;25.15;49.29;98509.88;5113465;27;20030;-72
2023/08/29 06:44:58;;;;;;;13.95;7.03;;;;;;;25.21;49.30;98511.69;5104668;27;20026;-72
2023/08/29 06:47:24;;;;;;;18.10;8.52;;;;;;;25.32;48.43;98505.59;5121475;27;20106;-72
2023/08/29 06:49:52;;;;;;;17.58;7.95;;;;;;;25.47;47.67;98513.72;5110456;27;20468;-72
2023/08/29 06:52:18;;;;;;;11.68;7.90;;;;;;;25.57;48.94;98506.84;5116506;27;20030;-73
2023/08/29 06:54:47;;;;;;;11.85;8.55;;;;;;;25.18;47.18;98498.31;5111892;28;20496;-72
2023/08/29 06:57:13;;;;;;;18.67;8.55;;;;;;;25.65;47.87;98508.19;5111546;28;20043;-73
2023/08/29 06:59:39;;;;;;;10.38;8.00;;;;;;;25.64;46.46;98506.59;5110936;28;20601;-72
2023/08/29 07:02:04;;;;;;;13.23;7.95;;;;;;;25.35;47.92;98487.53;5093104;28;20035;-72
2023/08/29 07:04:30;;;;;;;16.58;8.48;;;;;;;25.61;48.21;98501.81;5092979;28;20423;-73
2023/08/29 07:06:59;;;;;;;13.90;8.73;;;;;;;25.60;45.82;98508.81;5108376;28;20119;-73
2023/08/29 07:09:30;;;;;;;14.52;9.73;;;;;;;25.54;47.84;98496.31;5111658;28;20069;-73
2023/08/29 07:11:56;;;;;;;17.75;8.43;;;;;;;26.02;47.17;98501.19;5092306;28;20131;-73
2023/08/29 07:14:22;;;;;;;13.20;9.07;;;;;;;25.70;45.41;98506.00;5111476;28;20479;-73
2023/08/29 07:16:47;;;;;;;12.80;9.98;;;;;;;25.63;45.98;98499.28;5111544;28;20031;-75
2023/08/29 07:19:13;;;;;;;18.48;9.05;;;;;;;26.06;46.67;98508.41;5122663;28;20032;-74
2023/08/29 07:21:40;;;;;;;27.90;9.30;;;;;;;26.15;45.12;98518.34;5111451;28;20062;-74
2023/08/29 07:24:05;;;;;;;13.98;9.23;;;;;;;25.49;44.99;98503.44;5093146;28;20483;-73
2023/08/29 07:26:31;;;;;;;11.70;8.70;;;;;;;25.97;44.73;98505.44;5111542;28;20083;-74
2023/08/29 07:28:57;;;;;;;12.20;8.73;;;;;;;26.17;44.56;98501.47;5092459;28;20523;-74
2023/08/29 07:31:23;;;;;;;12.38;8.85;;;;;;;26.29;43.94;98503.50;5105369;28;20034;-73
2023/08/29 07:33:49;;;;;;;17.52;9.88;;;;;;;26.16;43.76;98505.63;5109772;28;20023;-73
2023/08/29 07:36:15;;;;;;;14.50;8.23;;;;;;;26.24;44.08;98503.31;5112774;28;20060;-73
2023/08/29 07:38:41;;;;;;;10.95;8.15;;;;;;;26.25;43.70;98497.13;5131803;28;20076;-73
2023/08/29 07:41:07;;;;;;;17.60;10.25;;;;;;;26.34;43.34;98484.91;5111423;28;20468;-73
2023/08/29 07:43:33;;;;;;;20.50;9.15;;;;;;;26.30;43.31;98487.09;5131732;28;20080;-73
2023/08/29 07:45:58;;;;;;;20.45;9.23;;;;;;;26.63;43.88;98480.94;5129828;28;20054;-73
2023/08/29 07:48:24;;;;;;;11.35;7.82;;;;;;;26.71;42.82;98488.00;5113129;28;20388;-73
2023/08/29 07:50:50;;;;;;;17.83;8.65;;;;;;;26.40;43.17;98473.66;5117059;28;20487;-73
2023/08/29 07:53:15;;;;;;;13.38;8.85;;;;;;;26.60;43.59;98487.63;5108772;27;20066;-73
2023/08/29 07:55:45;;;;;;;13.85;8.25;;;;;;;26.76;43.03;98475.13;5092888;28;20064;-74
2023/08/29 07:58:10;;;;;;;13.20;8.70;;;;;;;26.91;43.04;98479.03;5092676;28;20052;-74
2023/08/29 08:00:36;;;;;;;16.08;8.45;;;;;;;27.45;43.79;98470.25;5111117;28;20043;-74
2023/08/29 08:03:03;;;;;;;16.05;9.82;;;;;;;27.79;41.40;98458.97;5110356;28;20063;-74
2023/08/29 08:05:28;;;;;;;20.95;9.23;;;;;;;28.21;40.31;98473.97;5092701;28;20492;-74
2023/08/29 08:07:55;;;;;;;11.65;9.05;;;;;;;28.29;40.29;98466.63;5092720;28;20092;-73
2023/08/29 08:10:21;;;;;;;13.35;9.65;;;;;;;28.40;39.65;98471.88;5092360;28;20103;-74
2023/08/29 08:12:47;;;;;;;20.95;11.30;;;;;;;28.55;40.50;98449.00;5113145;28;20103;-73
2023/08/29 08:15:14;;;;;;;29.08;10.48;;;;;;;28.80;39.21;98446.97;5092386;28;20028;-74
2023/08/29 08:17:40;;;;;;;16.65;11.77;;;;;;;29.00;39.81;98444.38;5111215;28;20062;-73
2023/08/29 08:20:09;;;;;;;21.27;10.70;;;;;;;29.03;38.56;98430.28;5095962;28;20016;-74
2023/08/29 08:22:42;;;;;;;25.90;12.60;;;;;;;29.12;38.71;98439.66;5095843;28;20026;-75
2023/08/29 08:25:09;;;;;;;33.15;12.38;;;;;;;29.27;38.85;98444.72;5114551;28;20474;-73
2023/08/29 08:27:40;;;;;;;38.05;14.73;;;;;;;29.48;38.19;98457.22;5116945;27;20023;-77
2023/08/29 08:30:07;;;;;;;18.85;13.38;;;;;;;29.58;38.30;98457.16;5100717;28;20561;-75
2023/08/29 08:32:33;;;;;;;21.23;12.18;;;;;;;29.74;36.80;98465.34;5114250;28;20020;-74
2023/08/29 08:34:59;;;;;;;22.25;13.05;;;;;;;29.63;36.94;98453.59;5119209;27;20023;-75
2023/08/29 08:37:25;;;;;;;28.55;13.02;;;;;;;29.53;36.79;98452.88;5104890;27;20027;-78
2023/08/29 08:39:50;;;;;;;23.45;13.40;;;;;;;29.61;36.72;98445.44;5122001;27;20018;-77
2023/08/29 08:42:16;;;;;;;29.00;13.90;;;;;;;29.78;37.72;98442.91;5114403;27;20023;-78
2023/08/29 08:44:42;;;;;;;48.72;13.88;;;;;;;30.18;37.51;98431.38;5101776;27;20480;-81
2023/08/29 08:47:09;;;;;;;45.25;15.13;;;;;;;30.28;37.07;98420.53;5099062;27;20658;-76
2023/08/29 08:49:35;;;;;;;19.83;13.30;;;;;;;30.15;36.65;98417.94;5123657;27;20049;-74
2023/08/29 08:52:03;;;;;;;20.17;13.93;;;;;;;30.46;36.89;98408.78;5129997;27;20419;-74
2023/08/29 08:54:29;;;;;;;26.15;12.38;;;;;;;30.50;36.60;98408.59;5106469;27;20117;-82
2023/08/29 08:56:57;;;;;;;26.98;16.75;;;;;;;30.53;36.36;98422.03;5116318;27;20098;-81
2023/08/29 08:59:24;;;;;;;35.05;19.05;;;;;;;30.71;35.45;98415.28;5119659;27;20050;-76
2023/08/29 09:01:50;;;;;;;20.90;17.33;;;;;;;30.88;34.20;98411.84;5121087;27;20027;-74
2023/08/29 09:04:15;;;;;;;23.38;17.23;;;;;;;30.82;34.58;98405.97;5115825;27;20586;-74
2023/08/29 09:06:41;;;;;;;32.50;18.38;;;;;;;30.88;34.44;98414.72;5122526;27;20019;-75
2023/08/29 09:09:19;;;;;;;21.98;15.90;;;;;;;31.11;34.28;98404.28;5124333;27;20078;-78
2023/08/29 09:11:56;;;;;;;22.03;17.47;;;;;;;31.06;33.68;98407.91;5105569;27;20034;-76
2023/08/29 09:14:23;;;;;;;21.38;15.25;;;;;;;31.20;33.85;98397.59;5101026;27;20023;-76
2023/08/29 09:16:54;;;;;;;22.50;14.45;;;;;;;31.11;33.37;98369.66;5102485;27;20031;-76
2023/08/29 09:19:20;;;;;;;20.67;14.80;;;;;;;31.38;32.80;98399.44;5094544;27;20031;-76
2023/08/29 09:21:45;;;;;;;23.95;14.35;;;;;;;31.36;33.59;98399.13;5113882;27;20102;-74
2023/08/29 09:24:12;;;;;;;18.90;14.13;;;;;;;31.42;34.46;98381.88;5118355;27;20122;-74
2023/08/29 09:26:40;;;;;;;21.15;13.77;;;;;;;31.30;33.59;98389.63;5116514;27;20503;-71
2023/08/29 09:29:19;;;;;;;17.05;12.05;;;;;;;31.44;33.01;98379.31;5121365;27;20947;-74
2023/08/29 09:31:49;;;;;;;17.83;13.07;;;;;;;31.52;33.28;98372.56;5109107;27;20038;-71
2023/08/29 09:34:29;;;;;;;17.05;13.27;;;;;;;31.69;33.06;98374.84;5114352;27;20491;-72
2023/08/29 09:36:58;;;;;;;18.73;13.10;;;;;;;31.71;32.69;98368.56;5124201;27;20160;-70
2023/08/29 09:39:24;;;;;;;16.23;13.97;;;;;;;31.58;32.26;98371.84;5105762;27;20019;-72
2023/08/29 09:42:04;;;;;;;20.60;13.38;;;;;;;31.66;33.09;98361.44;5112185;27;20035;-73
2023/08/29 09:44:34;;;;;;;;;;;;;;;31.71;32.62;98363.56;5119290;27;20058;-73
2023/08/29 09:46:59;;;;;;;20.73;14.45;;;;;;;31.69;32.74;98353.84;5109174;27;19919;-72
2023/08/29 09:49:48;;;;;;;30.30;14.75;;;;;;;31.93;32.87;98356.47;5100279;27;20034;-71
2023/08/29 09:52:15;;;;;;;26.33;15.20;;;;;;;32.06;32.01;98368.41;5112488;27;20030;-73
2023/08/29 09:54:47;;;;;;;21.33;14.95;;;;;;;32.19;31.92;98378.78;5122958;27;20163;-73
2023/08/29 09:57:19;;;;;;;24.73;16.13;;;;;;;32.11;31.67;98360.34;5122165;27;20035;-73
2023/08/29 09:59:45;;;;;;;26.20;15.35;;;;;;;32.29;31.19;98357.06;5111450;27;20431;-73
2023/08/29 10:02:12;;;;;;;22.63;15.73;;;;;;;32.40;31.32;98353.50;5128336;27;20039;-73
2023/08/29 10:05:03;;;;;;;21.85;15.23;;;;;;;32.53;31.49;98352.28;5112260;27;20118;-72
2023/08/29 10:07:37;;;;;;;22.77;15.32;;;;;;;32.41;31.77;98340.63;5089123;27;20027;-72
2023/08/29 10:10:06;;;;;;;21.40;16.48;;;;;;;32.43;31.59;98334.31;5119752;27;20027;-72
2023/08/29 10:12:33;;;;;;;21.83;17.13;;;;;;;32.56;31.62;98333.91;5096860;27;20076;-73
2023/08/29 10:15:00;;;;;;;20.65;16.83;;;;;;;32.52;31.63;98328.34;5116731;27;20023;-75
2023/08/29 10:17:26;;;;;;;20.85;18.20;;;;;;;31.39;31.54;98334.59;5121813;27;20042;-74
2023/08/29 10:19:54;;;;;;;23.00;17.77;;;;;;;31.87;32.21;98330.41;5110127;27;20566;-73
2023/08/29 10:22:21;;;;;;;24.92;18.75;;;;;;;32.53;32.18;98326.25;5119384;27;20506;-73
2023/08/29 10:24:49;;;;;;;25.63;17.15;;;;;;;32.84;31.53;98316.72;5098237;28;20031;-72
2023/08/29 10:27:15;;;;;;;22.85;16.40;;;;;;;32.94;30.80;98322.28;5115214;27;20519;-73
2023/08/29 10:29:40;;;;;;;22.42;15.57;;;;;;;33.07;30.88;98316.84;5105231;27;20027;-72
2023/08/29 10:32:07;;;;;;;24.55;15.23;;;;;;;33.11;29.87;98320.28;5117114;27;20495;-72
2023/08/29 10:34:35;;;;;;;30.58;16.83;;;;;;;32.99;29.89;98312.84;5115453;27;20471;-72
2023/08/29 10:37:01;;;;;;;21.80;15.77;;;;;;;33.08;30.49;98306.03;5117518;27;20022;-72
2023/08/29 10:39:27;;;;;;;17.67;15.57;;;;;;;33.18;29.50;98308.22;5113086;27;20035;-71
2023/08/29 10:41:55;;;;;;;30.13;16.90;;;;;;;33.47;29.89;98306.22;5115693;27;20072;-72
2023/08/29 10:44:40;;;;;;;27.45;14.30;;;;;;;33.65;29.27;98298.34;5112451;27;20055;-71
2023/08/29 10:47:26;;;;;;;18.25;15.52;;;;;;;33.81;28.94;98311.28;5092465;27;20023;-72
2023/08/29 10:49:59;;;;;;;25.25;15.50;;;;;;;33.98;28.19;98305.53;5092146;28;20408;-72
2023/08/29 10:52:36;;;;;;;24.17;14.15;;;;;;;33.92;28.33;98298.13;5109961;27;20019;-72
2023/08/29 10:55:27;;;;;;;19.73;14.77;;;;;;;34.11;28.13;98304.22;5117773;27;20540;-72
2023/08/29 10:57:53;;;;;;;17.98;14.18;;;;;;;34.16;28.85;98295.50;5124719;27;20043;-72
2023/08/29 11:00:53;;;;;;;18.55;13.90;;;;;;;34.21;28.17;98290.22;5114178;27;20492;-72
2023/08/29 11:03:45;;;;;;;20.02;13.60;;;;;;;33.93;27.63;98291.00;5116041;27;20037;-72
2023/08/29 11:06:11;;;;;;;24.27;13.45;;;;;;;33.89;27.73;98291.25;5095391;27;20031;-72
2023/08/29 11:08:36;;;;;;;16.50;13.05;;;;;;;33.89;28.26;98285.47;5125373;27;20019;-72
2023/08/29 11:11:19;;;;;;;16.13;12.68;;;;;;;33.55;28.47;98280.41;5124257;27;20054;-72
2023/08/29 11:13:56;;;;;;;19.63;12.82;;;;;;;33.80;28.41;98282.84;5122576;27;20027;-72
2023/08/29 11:16:22;;;;;;;17.02;12.60;;;;;;;33.71;28.54;98284.66;5118583;27;20027;-72
2023/08/29 11:18:47;;;;;;;25.25;14.85;;;;;;;32.66;30.86;98283.19;5115271;27;20042;-72
2023/08/29 11:21:16;;;;;;;27.38;16.55;;;;;;;32.39;30.99;98278.81;5124067;28;20050;-72
2023/08/29 11:23:43;;;;;;;24.90;15.40;;;;;;;32.36;30.61;98266.16;5101864;28;20023;-72
2023/08/29 11:26:09;;;;;;;23.45;15.52;;;;;;;32.54;30.60;98262.06;5120397;27;20080;-73